createdAt,value
2023-08-04T00:00:08.333Z,19.56
2023-08-04T00:02:34.861Z,19.47
2023-08-04T00:05:01.389Z,19.42
2023-08-04T00:07:27.886Z,19.51
2023-08-04T00:09:54.451Z,19.55
2023-08-04T00:12:21.029Z,19.59
2023-08-04T00:14:48.024Z,19.60
2023-08-04T00:17:14.644Z,19.57
2023-08-04T00:19:41.417Z,19.55
2023-08-04T00:22:07.904Z,19.49
2023-08-04T00:24:34.573Z,19.42
2023-08-04T00:27:01.422Z,19.34
2023-08-04T00:29:28.202Z,19.24
2023-08-04T00:31:54.748Z,19.14
2023-08-04T00:34:21.300Z,19.09
2023-08-04T00:36:48.778Z,19.04
2023-08-04T00:39:15.355Z,19.02
2023-08-04T00:41:42.026Z,18.97
2023-08-04T00:44:08.804Z,18.93
2023-08-04T00:46:35.539Z,18.87
2023-08-04T00:49:02.068Z,18.85
2023-08-04T00:51:28.566Z,18.83
2023-08-04T00:53:55.079Z,18.86
2023-08-04T00:56:21.636Z,18.90
2023-08-04T00:58:48.061Z,18.94
2023-08-04T01:01:14.735Z,18.98
2023-08-04T01:03:41.505Z,18.96
2023-08-04T01:06:17.406Z,18.97
2023-08-04T01:08:46.589Z,18.96
2023-08-04T01:11:13.809Z,18.96
2023-08-04T01:13:41.016Z,18.96
2023-08-04T01:16:08.221Z,18.95
2023-08-04T01:18:34.791Z,18.94
2023-08-04T01:21:01.924Z,18.93
2023-08-04T01:23:28.461Z,18.95
2023-08-04T01:25:55.234Z,18.94
2023-08-04T01:28:21.738Z,18.92
2023-08-04T01:30:48.832Z,18.91
2023-08-04T01:33:15.353Z,18.89
2023-08-04T01:35:43.483Z,18.86
2023-08-04T01:38:10.497Z,18.85
2023-08-04T01:40:37.118Z,18.81
2023-08-04T01:43:07.106Z,18.78
2023-08-04T01:45:33.697Z,18.76
2023-08-04T01:48:00.361Z,18.71
2023-08-04T01:50:27.021Z,18.66
2023-08-04T01:52:54.674Z,18.61
2023-08-04T01:55:21.244Z,18.58
2023-08-04T01:57:47.738Z,18.55
2023-08-04T02:00:14.780Z,18.49
2023-08-04T02:02:41.538Z,18.48
2023-08-04T02:05:08.362Z,18.49
2023-08-04T02:07:34.924Z,18.48
2023-08-04T02:10:01.499Z,18.48
2023-08-04T02:12:28.221Z,18.46
2023-08-04T02:14:55.842Z,18.43
2023-08-04T02:17:22.353Z,18.42
2023-08-04T02:19:48.843Z,18.40
2023-08-04T02:22:20.658Z,18.40
2023-08-04T02:24:47.218Z,18.40
2023-08-04T02:27:13.741Z,18.43
2023-08-04T02:29:40.864Z,18.44
2023-08-04T02:32:07.486Z,18.46
2023-08-04T02:34:34.011Z,18.47
2023-08-04T02:37:00.552Z,18.46
2023-08-04T02:39:27.126Z,18.46
2023-08-04T02:41:54.341Z,18.45
2023-08-04T02:44:20.787Z,18.39
2023-08-04T02:46:47.363Z,18.30
2023-08-04T02:49:13.894Z,18.27
2023-08-04T02:51:40.350Z,18.28
2023-08-04T02:54:06.828Z,18.04
2023-08-04T02:56:33.328Z,18.20
2023-08-04T02:58:59.853Z,17.77
2023-08-04T03:01:26.409Z,18.11
2023-08-04T03:03:52.871Z,18.14
2023-08-04T03:06:19.409Z,18.20
2023-08-04T03:08:45.875Z,18.27
2023-08-04T03:11:12.577Z,18.32
2023-08-04T03:13:39.270Z,18.36
2023-08-04T03:16:06.250Z,18.38
2023-08-04T03:18:32.892Z,18.40
2023-08-04T03:21:02.187Z,18.39
2023-08-04T03:23:28.714Z,18.39
2023-08-04T03:25:55.166Z,18.39
2023-08-04T03:28:21.694Z,18.35
2023-08-04T03:30:48.282Z,18.31
2023-08-04T03:33:14.783Z,18.29
2023-08-04T03:35:41.339Z,18.30
2023-08-04T03:38:07.946Z,18.31
2023-08-04T03:40:34.474Z,18.34
2023-08-04T03:43:01.039Z,18.35
2023-08-04T03:45:27.580Z,18.37
2023-08-04T03:47:54.188Z,18.35
2023-08-04T03:50:20.711Z,18.36
2023-08-04T03:52:47.338Z,18.37
2023-08-04T03:55:13.823Z,18.37
2023-08-04T03:57:40.403Z,18.39
2023-08-04T04:00:07.439Z,18.40
2023-08-04T04:02:38.558Z,18.41
2023-08-04T04:05:05.220Z,18.47
2023-08-04T04:07:31.763Z,18.51
2023-08-04T04:09:58.473Z,18.55
2023-08-04T04:12:25.031Z,18.58
2023-08-04T04:14:51.892Z,18.59
2023-08-04T04:17:18.947Z,18.61
2023-08-04T04:19:45.488Z,18.61
2023-08-04T04:22:11.937Z,18.58
2023-08-04T04:24:38.733Z,18.62
2023-08-04T04:27:05.441Z,18.62
2023-08-04T04:29:33.400Z,18.65
2023-08-04T04:32:00.020Z,18.65
2023-08-04T04:34:30.147Z,18.66
2023-08-04T04:36:59.109Z,18.66
2023-08-04T04:39:28.738Z,18.69
2023-08-04T04:41:55.257Z,18.67
2023-08-04T04:44:21.780Z,18.68
2023-08-04T04:46:48.300Z,18.70
2023-08-04T04:49:17.438Z,18.70
2023-08-04T04:51:45.001Z,18.72
2023-08-04T04:54:12.063Z,18.75
2023-08-04T04:56:40.492Z,18.79
2023-08-04T04:59:07.164Z,18.82
2023-08-04T05:01:33.724Z,18.86
2023-08-04T05:04:00.877Z,18.87
2023-08-04T05:06:30.719Z,18.88
2023-08-04T05:08:58.122Z,18.87
2023-08-04T05:11:25.039Z,18.86
2023-08-04T05:13:51.926Z,18.87
2023-08-04T05:16:18.939Z,18.90
2023-08-04T05:18:45.962Z,18.93
2023-08-04T05:21:12.914Z,18.98
2023-08-04T05:23:39.701Z,19.02
2023-08-04T05:26:06.616Z,19.05
2023-08-04T05:28:34.080Z,19.08
2023-08-04T05:31:05.350Z,19.14
2023-08-04T05:33:33.065Z,19.22
2023-08-04T05:36:00.264Z,19.28
2023-08-04T05:38:27.281Z,19.35
2023-08-04T05:40:54.253Z,19.45
2023-08-04T05:43:20.846Z,19.53
2023-08-04T05:45:51.308Z,19.58
2023-08-04T05:48:18.007Z,19.63
2023-08-04T05:50:44.777Z,19.62
2023-08-04T05:53:11.513Z,19.65
2023-08-04T05:55:38.120Z,19.70
2023-08-04T05:58:05.219Z,19.76
2023-08-04T06:00:32.142Z,19.82
2023-08-04T06:02:58.830Z,19.93
2023-08-04T06:05:25.357Z,20.15
2023-08-04T06:07:51.984Z,20.34
2023-08-04T06:10:19.297Z,20.70
2023-08-04T06:12:46.490Z,21.39
2023-08-04T06:15:13.505Z,22.00
2023-08-04T06:17:40.335Z,22.75
2023-08-04T06:20:08.309Z,22.95
2023-08-04T06:22:35.884Z,22.89
2023-08-04T06:25:02.778Z,22.71
2023-08-04T06:27:29.347Z,22.52
2023-08-04T06:29:55.977Z,22.37
2023-08-04T06:32:22.482Z,22.18
2023-08-04T06:34:48.935Z,22.02
2023-08-04T06:37:15.436Z,21.91
2023-08-04T06:39:41.937Z,21.84
2023-08-04T06:42:08.433Z,21.79
2023-08-04T06:44:34.938Z,21.74
2023-08-04T06:47:01.457Z,21.72
2023-08-04T06:49:28.051Z,21.75
2023-08-04T06:51:54.659Z,21.71
2023-08-04T06:54:21.392Z,21.68
2023-08-04T06:56:47.973Z,21.72
2023-08-04T06:59:14.503Z,21.81
2023-08-04T07:01:41.221Z,21.86
2023-08-04T07:04:07.813Z,21.55
2023-08-04T07:06:35.290Z,21.92
2023-08-04T07:09:01.987Z,21.97
2023-08-04T07:11:28.491Z,22.01
2023-08-04T07:13:55.030Z,22.09
2023-08-04T07:16:22.211Z,22.21
2023-08-04T07:18:48.814Z,22.39
2023-08-04T07:21:15.579Z,22.60
2023-08-04T07:23:42.559Z,22.75
2023-08-04T07:26:09.422Z,22.95
2023-08-04T07:28:36.321Z,23.15
2023-08-04T07:31:09.505Z,23.40
2023-08-04T07:33:36.652Z,23.66
2023-08-04T07:36:03.615Z,23.87
2023-08-04T07:38:30.471Z,24.00
2023-08-04T07:40:57.458Z,24.23
2023-08-04T07:43:24.397Z,24.38
2023-08-04T07:45:50.878Z,24.43
2023-08-04T07:48:17.391Z,24.43
2023-08-04T07:50:46.025Z,24.71
2023-08-04T07:53:12.493Z,25.00
2023-08-04T07:55:40.683Z,25.19
2023-08-04T07:58:07.676Z,25.46
2023-08-04T08:00:34.213Z,25.57
2023-08-04T08:03:00.966Z,25.48
2023-08-04T08:05:27.645Z,25.55
2023-08-04T08:07:54.147Z,25.54
2023-08-04T08:12:47.300Z,25.37
2023-08-04T08:15:13.905Z,25.49
2023-08-04T08:17:40.388Z,25.68
2023-08-04T08:20:07.236Z,25.92
2023-08-04T08:22:33.745Z,26.08
2023-08-04T08:25:00.260Z,26.15
2023-08-04T08:27:26.853Z,26.21
2023-08-04T08:29:54.168Z,26.23
2023-08-04T08:32:20.773Z,26.36
2023-08-04T08:34:47.283Z,26.45
2023-08-04T08:37:13.836Z,26.48
2023-08-04T08:39:40.325Z,26.50
2023-08-04T08:42:06.980Z,26.54
2023-08-04T08:44:33.547Z,26.55
2023-08-04T08:47:00.100Z,26.58
2023-08-04T08:49:31.635Z,26.61
2023-08-04T08:51:59.529Z,26.72
2023-08-04T08:54:26.111Z,26.77
2023-08-04T08:56:52.741Z,26.63
2023-08-04T08:59:19.346Z,26.32
2023-08-04T09:01:46.302Z,26.15
2023-08-04T09:04:13.092Z,26.08
2023-08-04T09:06:39.610Z,26.13
2023-08-04T09:09:06.940Z,26.11
2023-08-04T09:11:33.772Z,26.11
2023-08-04T09:14:01.394Z,26.12
2023-08-04T09:16:32.345Z,26.10
2023-08-04T09:19:05.700Z,26.29
2023-08-04T09:21:32.494Z,26.59
2023-08-04T09:23:59.121Z,26.86
2023-08-04T09:26:25.751Z,27.22
2023-08-04T09:29:05.668Z,27.52
2023-08-04T09:31:38.924Z,27.89
2023-08-04T09:34:05.756Z,28.27
2023-08-04T09:36:32.634Z,28.60
2023-08-04T09:39:03.694Z,28.94
2023-08-04T09:41:33.116Z,29.02
2023-08-04T09:43:59.637Z,29.14
2023-08-04T09:46:26.231Z,29.39
2023-08-04T09:48:54.184Z,29.66
2023-08-04T09:51:20.678Z,29.63
2023-08-04T09:53:47.915Z,29.56
2023-08-04T09:56:15.316Z,29.63
2023-08-04T09:58:42.109Z,29.48
2023-08-04T10:01:09.016Z,29.59
2023-08-04T10:03:37.343Z,29.73
2023-08-04T10:06:07.152Z,29.73
2023-08-04T10:08:34.482Z,29.87
2023-08-04T10:11:01.068Z,29.70
2023-08-04T10:13:27.730Z,29.42
2023-08-04T10:15:58.062Z,28.99
2023-08-04T10:18:25.389Z,28.66
2023-08-04T10:20:54.922Z,28.37
2023-08-04T10:23:21.443Z,28.07
2023-08-04T10:25:55.450Z,27.77
2023-08-04T10:28:22.412Z,27.64
2023-08-04T10:31:02.922Z,27.51
2023-08-04T10:33:29.631Z,27.36
2023-08-04T10:36:04.073Z,26.91
2023-08-04T10:38:36.760Z,26.36
2023-08-04T10:41:07.240Z,26.07
2023-08-04T10:43:33.824Z,25.87
2023-08-04T10:46:10.798Z,25.70
2023-08-04T10:48:39.773Z,25.56
2023-08-04T10:51:07.563Z,25.45
2023-08-04T10:53:34.046Z,25.32
2023-08-04T10:56:01.889Z,25.34
2023-08-04T10:58:28.852Z,25.46
2023-08-04T11:00:56.027Z,25.61
2023-08-04T11:03:23.278Z,25.82
2023-08-04T11:05:52.913Z,26.16
2023-08-04T11:08:20.496Z,26.71
2023-08-04T11:10:50.986Z,27.06
2023-08-04T11:13:20.990Z,27.21
2023-08-04T11:15:51.043Z,27.18
2023-08-04T11:18:22.056Z,27.22
2023-08-04T11:20:48.628Z,27.29
2023-08-04T11:23:15.418Z,27.41
2023-08-04T11:25:42.391Z,27.53
2023-08-04T11:28:08.961Z,27.67
2023-08-04T11:30:36.019Z,27.43
2023-08-04T11:33:03.235Z,27.77
2023-08-04T11:35:31.742Z,27.91
2023-08-04T11:37:58.855Z,28.08
2023-08-04T11:40:26.068Z,28.34
2023-08-04T11:42:52.894Z,28.61
2023-08-04T11:45:19.757Z,28.76
2023-08-04T11:47:46.499Z,28.83
2023-08-04T11:50:13.290Z,28.74
2023-08-04T11:52:39.962Z,28.62
2023-08-04T11:55:07.192Z,28.43
2023-08-04T11:57:33.881Z,28.15
2023-08-04T12:00:02.017Z,27.96
2023-08-04T12:02:30.312Z,27.67
2023-08-04T12:05:07.617Z,27.15
2023-08-04T12:07:34.613Z,27.01
2023-08-04T12:10:01.147Z,26.84
2023-08-04T12:12:40.608Z,26.52
2023-08-04T12:15:07.403Z,26.01
2023-08-04T12:17:40.856Z,25.69
2023-08-04T12:20:11.519Z,25.40
2023-08-04T12:22:38.838Z,25.18
2023-08-04T12:25:05.864Z,25.07
2023-08-04T12:27:32.533Z,25.07
2023-08-04T12:29:59.146Z,25.13
2023-08-04T12:32:25.728Z,25.19
2023-08-04T12:34:52.303Z,25.18
2023-08-04T12:37:18.822Z,25.55
2023-08-04T12:39:45.749Z,25.73
2023-08-04T12:42:12.336Z,25.94
2023-08-04T12:44:38.834Z,26.22
2023-08-04T12:47:05.681Z,26.44
2023-08-04T12:49:32.282Z,26.72
2023-08-04T12:51:58.972Z,27.01
2023-08-04T12:54:25.649Z,27.24
2023-08-04T12:56:52.140Z,27.35
2023-08-04T12:59:18.944Z,27.27
2023-08-04T13:01:45.579Z,27.26
2023-08-04T13:04:12.243Z,27.27
2023-08-04T13:06:38.745Z,27.42
2023-08-04T13:09:05.258Z,27.58
2023-08-04T13:11:31.803Z,27.72
2023-08-04T13:13:58.324Z,27.80
2023-08-04T13:16:25.006Z,27.77
2023-08-04T13:18:53.045Z,27.89
2023-08-04T13:21:19.595Z,28.02
2023-08-04T13:23:47.687Z,28.12
2023-08-04T13:26:14.320Z,28.02
2023-08-04T13:28:43.132Z,28.04
2023-08-04T13:31:13.298Z,28.09
2023-08-04T13:33:39.994Z,28.21
2023-08-04T13:36:06.594Z,28.25
2023-08-04T13:38:33.221Z,28.27
2023-08-04T13:40:59.887Z,27.85
2023-08-04T13:43:27.279Z,28.19
2023-08-04T13:45:53.895Z,28.14
2023-08-04T13:48:20.381Z,28.08
2023-08-04T13:50:46.865Z,27.96
2023-08-04T13:53:13.481Z,27.71
2023-08-04T13:55:40.146Z,27.37
2023-08-04T13:58:06.812Z,27.16
2023-08-04T14:00:33.366Z,26.93
2023-08-04T14:03:00.155Z,26.40
2023-08-04T14:05:26.829Z,26.53
2023-08-04T14:07:53.781Z,26.35
2023-08-04T14:10:22.436Z,26.15
2023-08-04T14:12:48.919Z,25.88
2023-08-04T14:15:15.529Z,25.67
2023-08-04T14:17:42.203Z,25.51
2023-08-04T14:20:13.487Z,25.36
2023-08-04T14:22:40.174Z,25.16
2023-08-04T14:25:06.947Z,25.01
2023-08-04T14:27:33.446Z,24.89
2023-08-04T14:30:01.820Z,24.77
2023-08-04T14:32:28.818Z,24.62
2023-08-04T14:34:55.531Z,24.51
2023-08-04T14:37:22.029Z,24.43
2023-08-04T14:39:50.674Z,24.40
2023-08-04T14:42:19.254Z,24.41
2023-08-04T14:44:45.941Z,24.38
2023-08-04T14:47:12.640Z,24.38
2023-08-04T14:49:39.407Z,24.32
2023-08-04T14:52:06.210Z,24.27
2023-08-04T14:54:33.443Z,24.20
2023-08-04T14:57:00.077Z,24.13
2023-08-04T14:59:26.554Z,24.09
2023-08-04T15:01:53.172Z,24.06
2023-08-04T15:04:19.803Z,24.01
2023-08-04T15:06:46.347Z,24.01
2023-08-04T15:09:13.038Z,23.99
2023-08-04T15:11:39.605Z,23.96
2023-08-04T15:14:06.641Z,23.97
2023-08-04T15:16:33.259Z,23.98
2023-08-04T15:18:59.819Z,23.97
2023-08-04T15:21:26.360Z,23.90
2023-08-04T15:23:52.923Z,23.94
2023-08-04T15:26:19.538Z,23.99
2023-08-04T15:28:48.585Z,24.05
2023-08-04T15:31:15.238Z,24.06
2023-08-04T15:33:41.764Z,24.09
2023-08-04T15:36:08.612Z,24.11
2023-08-04T15:38:36.207Z,24.16
2023-08-04T15:41:04.111Z,24.21
2023-08-04T15:43:30.637Z,24.25
2023-08-04T15:45:57.206Z,24.27
2023-08-04T15:48:23.817Z,24.32
2023-08-04T15:50:50.376Z,24.40
2023-08-04T15:53:17.076Z,24.46
2023-08-04T15:55:43.610Z,24.50
2023-08-04T15:58:10.148Z,24.53
2023-08-04T16:00:36.692Z,24.54
2023-08-04T16:03:03.538Z,24.58
2023-08-04T16:05:30.178Z,24.59
2023-08-04T16:07:56.819Z,24.61
2023-08-04T16:10:23.644Z,24.65
2023-08-04T16:12:50.138Z,24.67
2023-08-04T16:15:16.808Z,24.67
2023-08-04T16:17:43.269Z,24.66
2023-08-04T16:20:09.848Z,24.69
2023-08-04T16:22:36.394Z,24.67
2023-08-04T16:25:03.474Z,24.72
2023-08-04T16:27:30.083Z,24.76
2023-08-04T16:29:56.582Z,24.84
2023-08-04T16:32:23.210Z,24.83
2023-08-04T16:34:49.875Z,24.75
2023-08-04T16:37:16.383Z,24.65
2023-08-04T16:39:44.763Z,24.66
2023-08-04T16:42:11.674Z,24.62
2023-08-04T16:44:38.183Z,24.65
2023-08-04T16:47:04.833Z,24.72
2023-08-04T16:49:31.258Z,24.77
2023-08-04T16:51:57.825Z,24.82
2023-08-04T16:54:24.335Z,24.77
2023-08-04T16:56:51.088Z,24.78
2023-08-04T16:59:17.804Z,24.79
2023-08-04T17:01:44.399Z,24.78
2023-08-04T17:04:11.040Z,24.74
2023-08-04T17:06:37.669Z,24.70
2023-08-04T17:09:04.401Z,24.61
2023-08-04T17:11:31.017Z,24.54
2023-08-04T17:13:57.603Z,24.43
2023-08-04T17:16:24.157Z,24.34
2023-08-04T17:18:50.824Z,24.27
2023-08-04T17:21:17.404Z,24.11
2023-08-04T17:23:43.964Z,23.97
2023-08-04T17:26:10.427Z,23.91
2023-08-04T17:28:36.920Z,23.90
2023-08-04T17:31:04.534Z,23.83
2023-08-04T17:33:31.762Z,23.79
2023-08-04T17:35:58.473Z,23.75
2023-08-04T17:38:24.925Z,23.67
2023-08-04T17:40:58.695Z,23.52
2023-08-04T17:43:25.358Z,23.36
2023-08-04T17:45:51.959Z,23.31
2023-08-04T17:48:18.524Z,23.29
2023-08-04T17:51:00.394Z,23.28
2023-08-04T17:53:27.098Z,23.25
2023-08-04T17:55:53.596Z,23.18
2023-08-04T17:58:20.398Z,23.07
2023-08-04T18:00:47.209Z,22.94
2023-08-04T18:03:13.791Z,22.87
2023-08-04T18:05:40.769Z,22.83
2023-08-04T18:08:07.682Z,22.79
2023-08-04T18:10:44.838Z,22.65
2023-08-04T18:13:11.919Z,22.66
2023-08-04T18:15:38.674Z,22.61
2023-08-04T18:18:05.710Z,22.65
2023-08-04T18:20:32.429Z,22.70
2023-08-04T18:22:58.998Z,22.67
2023-08-04T18:25:25.863Z,22.56
2023-08-04T18:27:52.478Z,22.56
2023-08-04T18:30:19.110Z,22.56
2023-08-04T18:32:45.703Z,22.54
2023-08-04T18:35:12.710Z,22.38
2023-08-04T18:37:39.327Z,22.31
2023-08-04T18:40:06.702Z,22.26
2023-08-04T18:42:39.790Z,22.24
2023-08-04T18:45:07.227Z,22.15
2023-08-04T18:47:33.980Z,22.12
2023-08-04T18:50:00.524Z,22.12
2023-08-04T18:52:27.476Z,22.12
2023-08-04T18:54:54.076Z,22.11
2023-08-04T18:57:20.592Z,22.12
2023-08-04T18:59:47.227Z,22.12
2023-08-04T19:02:13.703Z,22.07
2023-08-04T19:04:41.934Z,22.04
2023-08-04T19:07:11.812Z,22.03
2023-08-04T19:09:38.720Z,22.03
2023-08-04T19:12:05.480Z,22.02
2023-08-04T19:14:31.963Z,21.98
2023-08-04T19:16:58.613Z,21.98
2023-08-04T19:19:25.650Z,21.95
2023-08-04T19:21:52.250Z,21.91
2023-08-04T19:24:18.775Z,21.91
2023-08-04T19:26:45.368Z,21.88
2023-08-04T19:29:11.942Z,21.91
2023-08-04T19:31:38.469Z,21.93
2023-08-04T19:34:04.963Z,21.92
2023-08-04T19:36:31.609Z,21.89
2023-08-04T19:38:58.089Z,21.90
2023-08-04T19:41:24.676Z,21.92
2023-08-04T19:43:51.289Z,21.94
2023-08-04T19:46:18.029Z,21.99
2023-08-04T19:48:45.480Z,22.01
2023-08-04T19:51:15.181Z,22.02
2023-08-04T19:53:42.176Z,22.04
2023-08-04T19:56:10.147Z,22.03
2023-08-04T19:58:37.287Z,22.03
2023-08-04T20:01:06.210Z,22.00
2023-08-04T20:03:32.698Z,21.99
2023-08-04T20:05:59.220Z,21.95
2023-08-04T20:08:25.784Z,21.92
2023-08-04T20:10:58.549Z,21.85
2023-08-04T20:13:25.154Z,21.81
2023-08-04T20:15:51.715Z,21.78
2023-08-04T20:18:18.398Z,21.73
2023-08-04T20:20:54.492Z,21.69
2023-08-04T20:23:21.363Z,21.67
2023-08-04T20:25:47.871Z,21.64
2023-08-04T20:28:14.354Z,21.61
2023-08-04T20:30:41.038Z,21.58
2023-08-04T20:33:08.069Z,21.55
2023-08-04T20:35:34.704Z,21.48
2023-08-04T20:38:01.413Z,21.44
2023-08-04T20:40:27.926Z,21.46
2023-08-04T20:42:54.444Z,21.45
2023-08-04T20:45:20.942Z,21.45
2023-08-04T20:47:47.531Z,21.43
2023-08-04T20:50:14.197Z,21.46
2023-08-04T20:52:40.750Z,21.46
2023-08-04T20:55:07.741Z,21.44
2023-08-04T20:57:34.206Z,21.45
2023-08-04T21:00:00.696Z,21.44
2023-08-04T21:02:27.213Z,21.43
2023-08-04T21:04:54.005Z,21.44
2023-08-04T21:07:20.610Z,21.45
2023-08-04T21:09:47.189Z,21.43
2023-08-04T21:12:13.701Z,21.42
2023-08-04T21:14:40.236Z,21.41
2023-08-04T21:17:06.896Z,21.42
2023-08-04T21:19:33.962Z,21.42
2023-08-04T21:22:00.473Z,21.45
2023-08-04T21:24:28.839Z,21.45
2023-08-04T21:26:55.649Z,21.42
2023-08-04T21:29:22.163Z,21.40
2023-08-04T21:31:51.714Z,21.39
2023-08-04T21:34:21.544Z,21.40
2023-08-04T21:36:48.748Z,21.39
2023-08-04T21:39:18.545Z,21.39
2023-08-04T21:41:45.127Z,21.40
2023-08-04T21:44:11.719Z,21.41
2023-08-04T21:46:38.242Z,21.42
2023-08-04T21:49:04.798Z,21.43
2023-08-04T21:51:31.368Z,21.42
2023-08-04T21:53:57.917Z,21.44
2023-08-04T21:56:26.338Z,21.41
2023-08-04T21:58:53.162Z,21.41
2023-08-04T22:01:19.767Z,21.42
2023-08-04T22:03:46.297Z,21.41
2023-08-04T22:06:12.817Z,21.42
2023-08-04T22:08:39.407Z,21.41
2023-08-04T22:11:09.421Z,21.41
2023-08-04T22:13:36.409Z,21.41
2023-08-04T22:16:02.960Z,21.40
2023-08-04T22:18:29.550Z,21.38
2023-08-04T22:20:59.619Z,21.37
2023-08-04T22:23:26.861Z,21.35
2023-08-04T22:25:56.864Z,21.29
2023-08-04T22:28:23.876Z,21.29
2023-08-04T22:30:50.849Z,21.26
2023-08-04T22:33:17.568Z,21.22
2023-08-04T22:35:44.061Z,21.20
2023-08-04T22:38:10.633Z,21.20
2023-08-04T22:40:37.106Z,21.19
2023-08-04T22:43:03.670Z,21.16
2023-08-04T22:45:30.133Z,21.11
2023-08-04T22:47:56.724Z,21.07
2023-08-04T22:50:23.343Z,21.02
2023-08-04T22:52:49.924Z,20.98
2023-08-04T22:55:16.837Z,20.96
2023-08-04T22:57:43.359Z,20.94
2023-08-04T23:00:10.148Z,20.90
2023-08-04T23:02:36.580Z,20.87
2023-08-04T23:05:03.233Z,20.89
2023-08-04T23:07:29.674Z,20.88
2023-08-04T23:09:56.377Z,20.88
2023-08-04T23:12:22.835Z,20.90
2023-08-04T23:14:49.383Z,20.92
2023-08-04T23:17:17.591Z,20.94
2023-08-04T23:19:44.144Z,20.93
2023-08-04T23:22:10.694Z,20.95
2023-08-04T23:24:37.177Z,20.97
2023-08-04T23:27:03.736Z,20.99
2023-08-04T23:29:30.177Z,20.97
2023-08-04T23:31:56.707Z,20.94
2023-08-04T23:34:23.159Z,20.93
2023-08-04T23:36:49.751Z,20.94
2023-08-04T23:39:16.251Z,20.94
2023-08-04T23:41:42.771Z,20.96
2023-08-04T23:44:09.311Z,20.92
2023-08-04T23:46:35.811Z,20.91
2023-08-04T23:49:02.299Z,20.93
2023-08-04T23:51:28.867Z,20.92
2023-08-04T23:53:55.346Z,20.92
2023-08-04T23:56:21.855Z,20.90
2023-08-04T23:58:48.366Z,20.89
